Time;durP1;ratioP1;P1;durP2;ratioP2;P2;SDS_P1;SDS_P2;PMS_P1;PMS_P2;Temp;Humidity;BMP_temperature;BMP_pressure;BME280_temperature;BME280_humidity;BME280_pressure;Samples;Min_cycle;Max_cycle;Signal;HPM_P1;HPM_P2
2023/08/26 00:00:23;;;;;;;20.83;12.70;;;14.50;99.90;;;;;;5062992;28;20044;-23
2023/08/26 00:02:49;;;;;;;17.75;12.75;;;14.60;99.90;;;;;;5068539;28;20045;-23
2023/08/26 00:05:14;;;;;;;19.45;12.77;;;14.70;99.90;;;;;;5055752;28;20049;-23
2023/08/26 00:07:40;;;;;;;17.20;12.77;;;14.80;99.90;;;;;;5057448;28;20544;-23
2023/08/26 00:10:07;;;;;;;17.63;13.15;;;14.60;99.90;;;;;;5072984;28;20052;-23
2023/08/26 00:12:32;;;;;;;19.92;13.10;;;14.70;99.90;;;;;;5073921;28;20045;-23
2023/08/26 00:14:58;;;;;;;17.52;12.15;;;14.70;99.90;;;;;;5076396;28;20053;-23
2023/08/26 00:17:24;;;;;;;17.63;11.38;;;14.70;99.90;;;;;;5076346;28;20044;-23
2023/08/26 00:19:50;;;;;;;14.82;11.27;;;14.50;99.90;;;;;;5072285;28;20442;-23
2023/08/26 00:22:17;;;;;;;15.18;12.52;;;14.40;99.90;;;;;;5058063;28;20049;-23
2023/08/26 00:24:43;;;;;;;16.42;11.65;;;14.50;99.90;;;;;;5039558;28;20495;-24
2023/08/26 00:27:09;;;;;;;18.05;12.60;;;14.40;99.90;;;;;;5073577;28;20055;-22
2023/08/26 00:29:35;;;;;;;18.60;11.30;;;14.40;99.90;;;;;;5063988;28;20040;-23
2023/08/26 00:32:01;;;;;;;23.42;12.40;;;14.30;99.90;;;;;;5065185;28;20068;-23
2023/08/26 00:34:27;;;;;;;16.17;10.77;;;14.20;99.90;;;;;;5056481;28;20094;-23
2023/08/26 00:36:52;;;;;;;17.20;11.18;;;14.00;99.90;;;;;;5057002;28;20045;-23
2023/08/26 00:39:18;;;;;;;17.75;11.88;;;13.90;99.90;;;;;;5059843;28;20045;-23
2023/08/26 00:41:44;;;;;;;16.23;11.38;;;13.80;99.90;;;;;;5064946;28;20040;-22
2023/08/26 00:44:10;;;;;;;15.18;11.20;;;13.70;99.90;;;;;;5055637;28;20079;-22
2023/08/26 00:46:36;;;;;;;16.10;11.18;;;13.60;99.90;;;;;;5057619;28;20041;-23
2023/08/26 00:49:02;;;;;;;16.60;10.50;;;13.50;99.90;;;;;;5056459;28;20033;-23
2023/08/26 00:51:28;;;;;;;15.65;11.25;;;13.40;99.90;;;;;;5060127;28;20051;-23
2023/08/26 00:53:55;;;;;;;14.18;11.13;;;13.40;99.90;;;;;;5068408;28;20123;-23
2023/08/26 00:56:22;;;;;;;13.40;10.30;;;13.30;99.90;;;;;;5059436;28;20106;-23
2023/08/26 00:58:48;;;;;;;15.85;9.73;;;13.30;99.90;;;;;;5056557;28;20048;-23
2023/08/26 01:01:14;;;;;;;15.63;10.50;;;13.20;99.90;;;;;;5063442;28;20127;-23
2023/08/26 01:03:40;;;;;;;11.57;9.45;;;13.20;99.90;;;;;;5066915;28;20406;-22
2023/08/26 01:06:05;;;;;;;17.40;10.15;;;13.30;99.90;;;;;;5055318;28;20049;-23
2023/08/26 01:08:32;;;;;;;15.70;10.10;;;13.30;99.90;;;;;;5062502;28;20040;-23
2023/08/26 01:11:22;;;;;;;15.25;10.95;;;13.30;99.90;;;;;;5075697;28;20041;-23
2023/08/26 01:13:49;;;;;;;15.25;10.40;;;13.30;99.90;;;;;;5076917;28;20048;-23
2023/08/26 01:16:16;;;;;;;14.93;9.65;;;13.40;99.90;;;;;;5075315;28;20448;-23
2023/08/26 01:18:42;;;;;;;15.73;9.35;;;13.40;99.90;;;;;;5076412;28;20051;-23
2023/08/26 01:21:12;;;;;;;11.85;10.27;;;13.40;99.90;;;;;;5064707;28;20450;-23
2023/08/26 01:23:41;;;;;;;14.55;8.90;;;13.50;99.90;;;;;;5056128;28;20041;-23
2023/08/26 01:26:07;;;;;;;12.05;9.02;;;13.60;99.90;;;;;;5053679;28;20065;-23
2023/08/26 01:28:33;;;;;;;11.27;9.30;;;13.50;99.90;;;;;;5055261;28;20403;-23
2023/08/26 01:31:03;;;;;;;15.45;8.93;;;13.50;99.90;;;;;;5055615;28;20391;-23
2023/08/26 01:33:35;;;;;;;11.05;7.53;;;13.50;99.90;;;;;;5055229;28;20076;-22
2023/08/26 01:36:04;;;;;;;9.93;6.70;;;13.60;99.90;;;;;;5075580;28;20101;-22
2023/08/26 01:38:30;;;;;;;11.50;7.35;;;13.50;99.90;;;;;;5059466;28;20047;-23
2023/08/26 01:40:59;;;;;;;11.48;6.90;;;13.50;99.90;;;;;;5055710;28;20060;-23
2023/08/26 01:43:25;;;;;;;8.40;6.75;;;13.50;99.90;;;;;;5055989;28;20111;-23
2023/08/26 01:45:52;;;;;;;10.05;8.43;;;13.50;99.90;;;;;;5055656;28;20052;-23
2023/08/26 01:48:18;;;;;;;11.73;7.03;;;13.40;99.90;;;;;;5056338;28;20044;-23
2023/08/26 01:50:43;;;;;;;11.07;6.63;;;13.40;99.90;;;;;;5054374;28;20114;-23
2023/08/26 01:53:09;;;;;;;9.27;7.63;;;13.30;99.90;;;;;;5070013;28;20056;-22
2023/08/26 01:55:35;;;;;;;10.20;7.40;;;13.30;99.90;;;;;;5059065;28;20076;-22
2023/08/26 01:58:01;;;;;;;14.45;8.65;;;13.10;99.90;;;;;;5072419;28;20044;-23
2023/08/26 02:00:26;;;;;;;11.02;7.22;;;13.10;99.90;;;;;;5057856;28;20049;-22
2023/08/26 02:02:52;;;;;;;13.35;7.72;;;12.90;99.90;;;;;;5055596;28;20107;-23
2023/08/26 02:05:18;;;;;;;12.90;8.15;;;12.70;99.90;;;;;;5057557;28;20037;-23
2023/08/26 02:07:44;;;;;;;10.07;7.38;;;12.60;99.90;;;;;;5068306;28;20052;-23
2023/08/26 02:10:10;;;;;;;11.75;7.68;;;12.40;99.90;;;;;;5075059;28;20048;-22
2023/08/26 02:12:35;;;;;;;12.18;7.95;;;12.30;99.90;;;;;;5054022;28;20049;-23
2023/08/26 02:15:02;;;;;;;10.57;8.60;;;12.10;99.90;;;;;;5053968;28;20052;-23
2023/08/26 02:17:28;;;;;;;13.38;8.65;;;12.00;99.90;;;;;;5054986;28;20045;-22
2023/08/26 02:19:54;;;;;;;11.63;8.60;;;12.00;99.90;;;;;;5055536;28;20048;-22
2023/08/26 02:22:20;;;;;;;13.98;9.43;;;11.90;99.90;;;;;;5054947;28;20041;-22
2023/08/26 02:24:46;;;;;;;16.88;10.45;;;12.00;99.90;;;;;;5040824;28;20056;-22
2023/08/26 02:27:13;;;;;;;14.23;9.70;;;11.90;99.90;;;;;;5073803;28;20092;-22
2023/08/26 02:29:39;;;;;;;13.68;11.18;;;11.90;99.90;;;;;;5074846;28;20048;-23
2023/08/26 02:32:05;;;;;;;15.20;9.45;;;12.00;99.90;;;;;;5074137;28;20367;-22
2023/08/26 02:34:31;;;;;;;13.10;10.07;;;11.80;99.90;;;;;;5074793;28;20093;-22
2023/08/26 02:36:57;;;;;;;15.30;10.55;;;11.70;99.90;;;;;;5069170;28;20048;-22
2023/08/26 02:39:23;;;;;;;14.40;9.52;;;11.70;99.90;;;;;;5054472;28;20048;-22
2023/08/26 02:41:49;;;;;;;17.90;10.38;;;11.60;99.90;;;;;;5062893;28;20119;-22
2023/08/26 02:44:15;;;;;;;15.95;10.90;;;11.60;99.90;;;;;;5054666;28;20174;-22
2023/08/26 02:46:41;;;;;;;14.60;10.23;;;11.50;99.90;;;;;;5036919;28;20051;-22
2023/08/26 02:49:07;;;;;;;13.38;10.13;;;11.50;99.90;;;;;;5054058;28;20449;-21
2023/08/26 02:51:32;;;;;;;17.10;10.90;;;11.50;99.90;;;;;;5054678;28;20037;-22
2023/08/26 02:53:58;;;;;;;12.13;8.40;;;11.40;99.90;;;;;;5054375;28;20052;-23
2023/08/26 02:56:24;;;;;;;10.80;8.07;;;11.30;99.90;;;;;;5052881;28;20045;-23
2023/08/26 02:58:49;;;;;;;9.93;7.03;;;11.20;99.90;;;;;;5071276;28;20051;-24
2023/08/26 03:01:16;;;;;;;12.98;9.45;;;11.00;99.90;;;;;;5058054;28;20123;-24
2023/08/26 03:03:42;;;;;;;14.52;10.38;;;10.80;99.90;;;;;;5058473;28;20384;-24
2023/08/26 03:06:08;;;;;;;18.08;10.18;;;10.80;99.90;;;;;;5057432;28;20040;-24
2023/08/26 03:08:34;;;;;;;12.07;8.93;;;10.60;99.90;;;;;;5062191;28;20063;-23
2023/08/26 03:11:03;;;;;;;14.90;9.23;;;10.60;99.90;;;;;;5054098;28;20037;-24
2023/08/26 03:13:29;;;;;;;13.18;9.43;;;10.50;99.90;;;;;;5072922;28;20106;-24
2023/08/26 03:15:55;;;;;;;16.30;10.45;;;10.40;99.90;;;;;;5072848;28;20045;-24
2023/08/26 03:18:21;;;;;;;12.48;8.95;;;10.40;99.90;;;;;;5073855;28;20051;-24
2023/08/26 03:20:46;;;;;;;13.43;9.95;;;10.30;99.90;;;;;;5073637;28;20048;-24
2023/08/26 03:23:12;;;;;;;14.00;9.70;;;10.30;99.90;;;;;;5072773;28;20086;-24
2023/08/26 03:25:38;;;;;;;12.75;9.20;;;10.30;99.90;;;;;;5056035;28;20510;-23
2023/08/26 03:28:05;;;;;;;18.67;10.10;;;10.30;99.90;;;;;;5074136;28;20114;-24
2023/08/26 03:30:31;;;;;;;14.90;10.13;;;10.20;99.90;;;;;;5073778;28;20044;-24
2023/08/26 03:32:57;;;;;;;11.02;8.32;;;10.30;99.90;;;;;;5072783;28;20056;-24
2023/08/26 03:35:23;;;;;;;19.80;10.23;;;10.30;99.90;;;;;;5073781;28;20044;-24
2023/08/26 03:37:48;;;;;;;16.23;10.07;;;10.50;99.90;;;;;;5055985;28;20494;-24
2023/08/26 03:40:14;;;;;;;15.75;9.68;;;10.70;99.90;;;;;;5072447;28;20052;-24
2023/08/26 03:42:41;;;;;;;17.83;11.02;;;10.60;99.90;;;;;;5073108;28;20040;-23
2023/08/26 03:45:07;;;;;;;15.85;10.32;;;10.70;99.90;;;;;;5073623;28;20044;-24
2023/08/26 03:47:33;;;;;;;19.30;10.60;;;10.80;99.90;;;;;;5074082;28;20044;-24
2023/08/26 03:49:59;;;;;;;16.30;10.40;;;10.80;99.90;;;;;;5073340;28;20052;-24
2023/08/26 03:52:25;;;;;;;14.80;10.05;;;11.00;99.90;;;;;;5073635;28;20044;-24
2023/08/26 03:54:51;;;;;;;13.90;9.50;;;10.90;99.90;;;;;;5073574;28;20394;-24
2023/08/26 03:57:16;;;;;;;16.63;10.77;;;10.90;99.90;;;;;;5060587;28;20051;-24
2023/08/26 03:59:42;;;;;;;22.58;11.68;;;11.10;99.90;;;;;;5053215;28;20048;-24
2023/08/26 04:02:08;;;;;;;18.80;11.73;;;11.30;99.90;;;;;;5065211;28;20519;-24
2023/08/26 04:04:33;;;;;;;17.95;11.85;;;11.20;99.90;;;;;;5069996;28;20052;-24
2023/08/26 04:06:59;;;;;;;16.13;12.15;;;11.40;99.90;;;;;;5057292;28;20045;-24
2023/08/26 04:09:25;;;;;;;20.35;13.32;;;11.40;99.90;;;;;;5052607;28;20041;-24
2023/08/26 04:11:51;;;;;;;20.90;12.02;;;11.50;99.90;;;;;;5053676;28;20114;-24
2023/08/26 04:14:16;;;;;;;26.45;14.57;;;11.70;99.90;;;;;;5053144;28;20045;-24
2023/08/26 04:16:42;;;;;;;26.70;12.68;;;11.70;99.90;;;;;;5061397;28;20053;-24
2023/08/26 04:19:08;;;;;;;21.90;12.57;;;11.70;99.90;;;;;;5053522;28;20049;-23
2023/08/26 04:21:33;;;;;;;17.52;12.02;;;11.90;99.90;;;;;;5053716;28;20052;-23
2023/08/26 04:23:59;;;;;;;19.50;12.85;;;12.00;99.90;;;;;;5067948;28;20045;-24
2023/08/26 04:26:25;;;;;;;19.33;12.63;;;11.90;99.90;;;;;;5058315;28;20107;-24
2023/08/26 04:28:50;;;;;;;16.13;11.50;;;12.00;99.90;;;;;;5036848;28;20056;-23
2023/08/26 04:31:16;;;;;;;16.13;11.90;;;12.00;99.90;;;;;;5035680;28;20053;-23
2023/08/26 04:33:44;;;;;;;20.27;12.55;;;12.10;99.90;;;;;;5052932;28;20041;-23
2023/08/26 04:36:09;;;;;;;18.83;13.20;;;12.30;99.90;;;;;;5056471;28;20049;-23
2023/08/26 04:38:35;;;;;;;18.52;12.20;;;12.30;99.90;;;;;;5060814;28;20502;-23
2023/08/26 04:41:02;;;;;;;16.95;11.30;;;12.40;99.90;;;;;;5051838;28;20051;-23
2023/08/26 04:43:28;;;;;;;13.27;10.40;;;12.30;99.90;;;;;;5051715;28;20514;-23
2023/08/26 04:45:55;;;;;;;14.20;11.40;;;12.40;99.90;;;;;;5052835;28;20080;-23
2023/08/26 04:48:21;;;;;;;14.93;10.95;;;12.40;99.90;;;;;;5061302;28;20049;-23
2023/08/26 04:50:46;;;;;;;13.75;10.25;;;12.50;99.90;;;;;;5053572;28;20048;-23
2023/08/26 04:53:12;;;;;;;18.35;12.13;;;12.40;99.90;;;;;;5053564;28;20433;-23
2023/08/26 04:55:38;;;;;;;19.38;11.77;;;12.50;99.90;;;;;;5061357;28;20048;-23
2023/08/26 04:58:07;;;;;;;12.45;10.48;;;12.50;99.90;;;;;;5068903;28;20119;-23
2023/08/26 05:00:33;;;;;;;16.35;10.40;;;12.60;99.90;;;;;;5056178;28;20075;-23
2023/08/26 05:02:59;;;;;;;13.20;9.63;;;12.60;99.90;;;;;;5055512;28;20491;-23
2023/08/26 05:05:24;;;;;;;12.80;8.85;;;12.60;99.90;;;;;;5063147;28;20406;-23
2023/08/26 05:07:50;;;;;;;11.93;9.15;;;12.70;99.90;;;;;;5070233;28;20128;-23
2023/08/26 05:10:16;;;;;;;13.68;8.98;;;12.70;99.90;;;;;;5060902;28;20041;-23
2023/08/26 05:12:41;;;;;;;10.82;8.43;;;12.70;99.90;;;;;;5058193;28;20045;-23
2023/08/26 05:15:07;;;;;;;11.95;9.02;;;12.70;99.90;;;;;;5076284;28;20048;-23
2023/08/26 05:17:33;;;;;;;10.50;8.18;;;12.80;99.90;;;;;;5075018;28;20048;-23
2023/08/26 05:19:59;;;;;;;13.90;9.18;;;12.70;99.90;;;;;;5076278;28;20063;-23
2023/08/26 05:22:25;;;;;;;12.52;8.32;;;12.80;99.90;;;;;;5074967;28;20053;-23
2023/08/26 05:24:50;;;;;;;10.73;7.55;;;12.70;99.90;;;;;;5072288;28;20090;-23
2023/08/26 05:27:16;;;;;;;11.60;7.93;;;12.80;99.90;;;;;;5055548;28;20131;-23
2023/08/26 05:29:43;;;;;;;12.55;8.85;;;12.80;99.90;;;;;;5056039;28;20045;-23
2023/08/26 05:32:08;;;;;;;10.98;8.35;;;12.70;99.90;;;;;;5056020;28;20067;-23
2023/08/26 05:34:35;;;;;;;12.15;7.75;;;12.70;99.90;;;;;;5056491;28;20530;-23
2023/08/26 05:37:01;;;;;;;11.05;7.22;;;12.70;99.90;;;;;;5055878;28;20132;-23
2023/08/26 05:39:28;;;;;;;12.90;8.32;;;12.70;99.90;;;;;;5059650;28;20124;-23
2023/08/26 05:41:53;;;;;;;11.93;8.40;;;12.60;99.90;;;;;;5054812;28;20045;-23
2023/08/26 05:44:19;;;;;;;16.50;8.07;;;12.50;99.90;;;;;;5056436;28;20049;-23
2023/08/26 05:46:45;;;;;;;11.02;7.65;;;12.60;99.90;;;;;;5039861;28;20044;-23
2023/08/26 05:49:10;;;;;;;14.95;9.00;;;12.70;99.90;;;;;;5058687;28;20033;-23
2023/08/26 05:51:36;;;;;;;11.25;8.20;;;12.60;99.90;;;;;;5059396;28;20097;-23
2023/08/26 05:54:02;;;;;;;9.13;7.78;;;12.70;99.90;;;;;;5054416;28;20125;-23
2023/08/26 05:56:28;;;;;;;12.52;8.77;;;12.80;99.90;;;;;;5068262;28;20479;-23
2023/08/26 05:58:54;;;;;;;14.40;8.30;;;12.80;99.90;;;;;;5038563;28;20052;-23
2023/08/26 06:01:20;;;;;;;13.57;8.27;;;12.90;99.90;;;;;;5071438;28;20048;-23
2023/08/26 06:03:46;;;;;;;12.35;7.80;;;13.20;99.90;;;;;;5056312;28;20080;-23
2023/08/26 06:06:11;;;;;;;12.73;8.10;;;13.40;99.90;;;;;;5062138;28;20134;-23
2023/08/26 06:08:37;;;;;;;10.10;7.82;;;13.40;99.90;;;;;;5053657;28;20079;-22
2023/08/26 06:11:03;;;;;;;10.27;6.72;;;13.60;99.90;;;;;;5053947;28;20405;-24
2023/08/26 06:13:28;;;;;;;8.98;6.70;;;13.70;99.90;;;;;;5054867;28;20048;-23
2023/08/26 06:15:55;;;;;;;9.77;6.97;;;13.80;99.90;;;;;;5053793;28;20442;-24
2023/08/26 06:18:22;;;;;;;9.70;6.82;;;13.90;99.90;;;;;;5037534;28;20052;-24
2023/08/26 06:20:50;;;;;;;8.70;7.65;;;14.00;99.90;;;;;;5056877;28;20123;-23
2023/08/26 06:23:16;;;;;;;7.20;5.90;;;14.00;99.90;;;;;;5054406;28;20457;-23
2023/08/26 06:25:56;;;;;;;12.00;5.68;;;14.00;99.90;;;;;;5054347;28;20041;-23
2023/08/26 06:28:23;;;;;;;7.28;5.25;;;14.10;99.90;;;;;;5061073;28;20055;-24
2023/08/26 06:30:49;;;;;;;10.13;4.95;;;14.20;99.90;;;;;;5064153;28;20153;-24
2023/08/26 06:33:15;;;;;;;9.68;5.25;;;14.20;99.90;;;;;;5063623;28;20044;-23
2023/08/26 06:35:46;;;;;;;11.05;4.50;;;14.30;99.90;;;;;;5072281;28;20045;-26
2023/08/26 06:38:12;;;;;;;7.82;4.10;;;14.30;99.90;;;;;;5057204;28;20048;-25
2023/08/26 06:40:37;;;;;;;6.03;4.00;;;14.30;99.90;;;;;;5074799;28;20131;-24
2023/08/26 06:43:03;;;;;;;4.75;3.28;;;14.40;99.90;;;;;;5074587;28;20052;-25
2023/08/26 06:45:30;;;;;;;6.38;3.20;;;14.40;99.90;;;;;;5067759;28;20051;-24
2023/08/26 06:47:57;;;;;;;4.93;2.53;;;14.40;99.90;;;;;;5054559;28;20044;-24
2023/08/26 06:50:23;;;;;;;4.90;2.35;;;14.40;99.90;;;;;;5054412;28;20179;-24
2023/08/26 06:52:50;;;;;;;4.57;2.50;;;14.50;99.90;;;;;;5053260;28;20051;-24
2023/08/26 06:55:19;;;;;;;7.90;2.53;;;14.50;99.90;;;;;;5054960;28;20045;-26
2023/08/26 06:57:45;;;;;;;6.07;2.50;;;14.60;99.90;;;;;;5054841;28;20049;-25
2023/08/26 07:00:12;;;;;;;6.43;1.95;;;14.70;99.90;;;;;;5053181;28;20084;-25
2023/08/26 07:02:38;;;;;;;2.80;2.10;;;14.80;99.90;;;;;;5054249;28;20045;-26
2023/08/26 07:05:04;;;;;;;4.50;2.03;;;14.90;99.90;;;;;;5054741;28;20048;-25
2023/08/26 07:07:30;;;;;;;5.07;2.35;;;15.00;99.90;;;;;;5054611;28;20048;-25
2023/08/26 07:09:56;;;;;;;5.32;1.50;;;15.00;99.90;;;;;;5054743;28;20106;-26
2023/08/26 07:12:22;;;;;;;3.53;1.67;;;15.10;99.90;;;;;;5054138;28;20548;-26
2023/08/26 07:14:47;;;;;;;3.38;1.77;;;15.30;99.90;;;;;;5054908;28;20402;-26
2023/08/26 07:17:15;;;;;;;3.60;1.83;;;15.50;99.90;;;;;;5054039;28;20414;-25
2023/08/26 07:19:41;;;;;;;5.32;2.33;;;15.70;99.90;;;;;;5052790;28;20041;-25
2023/08/26 07:22:07;;;;;;;5.53;2.05;;;15.80;99.90;;;;;;5053809;28;20055;-26
2023/08/26 07:24:33;;;;;;;5.50;2.65;;;15.80;99.90;;;;;;5051894;28;20048;-24
2023/08/26 07:26:58;;;;;;;6.20;2.30;;;15.80;99.90;;;;;;5037303;28;20107;-27
2023/08/26 07:29:24;;;;;;;7.07;4.07;;;16.00;99.90;;;;;;5053676;28;20502;-27
2023/08/26 07:31:50;;;;;;;11.77;4.70;;;16.00;99.90;;;;;;5052553;28;20049;-26
2023/08/26 07:34:15;;;;;;;8.57;4.88;;;16.40;99.90;;;;;;5053115;28;20052;-26
2023/08/26 07:36:41;;;;;;;9.55;5.47;;;16.60;99.90;;;;;;5056142;28;20041;-25
2023/08/26 07:39:08;;;;;;;8.18;5.88;;;16.70;99.90;;;;;;5056368;28;20049;-26
2023/08/26 07:41:35;;;;;;;12.02;7.38;;;16.60;99.90;;;;;;5062214;28;20075;-26
2023/08/26 07:44:00;;;;;;;8.07;7.07;;;16.60;99.90;;;;;;5052573;28;20052;-26
2023/08/26 07:46:26;;;;;;;14.93;8.77;;;16.50;99.90;;;;;;5056905;28;20044;-25
2023/08/26 07:48:52;;;;;;;10.07;8.25;;;16.40;99.90;;;;;;5052441;28;20475;-27
2023/08/26 07:51:18;;;;;;;14.10;9.40;;;16.40;99.90;;;;;;5053604;28;20076;-26
2023/08/26 07:53:44;;;;;;;13.45;9.77;;;16.50;99.90;;;;;;5053868;28;20461;-25
2023/08/26 07:56:10;;;;;;;13.23;10.20;;;16.50;99.90;;;;;;5064907;28;20053;-26
2023/08/26 07:58:35;;;;;;;13.55;10.20;;;16.60;99.90;;;;;;5053813;28;20052;-26
2023/08/26 08:01:02;;;;;;;16.38;12.82;;;16.80;99.90;;;;;;5054594;28;20059;-27
2023/08/26 08:03:27;;;;;;;16.63;12.30;;;16.90;99.90;;;;;;5054307;28;20124;-26
2023/08/26 08:05:53;;;;;;;12.73;10.90;;;17.10;99.90;;;;;;5054004;28;20475;-27
2023/08/26 08:08:19;;;;;;;17.17;11.13;;;17.20;99.90;;;;;;5053102;28;20049;-26
2023/08/26 08:10:45;;;;;;;15.13;11.02;;;17.10;99.90;;;;;;5053060;28;20060;-26
2023/08/26 08:13:10;;;;;;;15.63;12.00;;;17.20;99.90;;;;;;5053958;28;20470;-27
2023/08/26 08:15:36;;;;;;;14.80;11.10;;;17.20;99.90;;;;;;5052192;28;20045;-26
2023/08/26 08:18:03;;;;;;;18.40;11.40;;;17.30;99.90;;;;;;5052098;28;20037;-26
2023/08/26 08:20:30;;;;;;;12.80;10.82;;;17.40;99.90;;;;;;5059760;28;20072;-27
2023/08/26 08:22:56;;;;;;;13.48;10.10;;;17.30;99.90;;;;;;5073271;28;20114;-27
2023/08/26 08:25:22;;;;;;;13.35;9.38;;;17.40;99.90;;;;;;5072268;28;20044;-26
2023/08/26 08:27:48;;;;;;;14.50;8.25;;;17.40;99.90;;;;;;5072794;28;20095;-26
2023/08/26 08:30:14;;;;;;;13.48;9.15;;;17.50;99.90;;;;;;5071870;28;20474;-25
2023/08/26 08:32:40;;;;;;;12.00;9.27;;;17.70;99.90;;;;;;5071826;28;20055;-26
2023/08/26 08:35:06;;;;;;;11.80;8.82;;;17.80;99.90;;;;;;5075614;28;20051;-26
2023/08/26 08:37:32;;;;;;;11.38;8.70;;;17.80;57.40;;;;;;5075800;28;20049;-27
2023/08/26 08:39:59;;;;;;;12.13;9.32;;;17.90;99.90;;;;;;5066918;28;20506;-27
2023/08/26 08:42:25;;;;;;;12.27;8.65;;;18.20;99.90;;;;;;5066192;28;20045;-26
2023/08/26 08:44:51;;;;;;;12.23;8.52;;;18.40;99.90;;;;;;5060499;28;20045;-26
2023/08/26 08:47:17;;;;;;;10.80;8.90;;;18.50;99.90;;;;;;5067640;28;20037;-27
2023/08/26 08:49:43;;;;;;;13.68;9.07;;;18.50;53.20;;;;;;5046016;28;20045;-25
2023/08/26 08:52:10;;;;;;;14.65;9.52;;;18.60;99.90;;;;;;5060673;28;20056;-26
2023/08/26 08:54:37;;;;;;;13.18;8.98;;;18.70;79.10;;;;;;5061174;28;20049;-25
2023/08/26 08:57:06;;;;;;;11.90;8.35;;;18.50;1.00;;;;;;5060203;28;20055;-25
2023/08/26 08:59:37;;;;;;;10.13;7.95;;;18.50;1.00;;;;;;5067244;28;20055;-27
2023/08/26 09:02:04;;;;;;;13.18;8.18;;;18.50;1.00;;;;;;5057822;28;20045;-27
2023/08/26 09:04:30;;;;;;;10.43;7.93;;;18.40;1.00;;;;;;5056974;28;20049;-26
2023/08/26 09:06:56;;;;;;;13.45;8.00;;;18.90;34.90;;;;;;5059670;28;20055;-25
2023/08/26 09:09:24;;;;;;;21.30;8.93;;;19.30;1.00;;;;;;5072334;28;20398;-27
2023/08/26 09:11:50;;;;;;;12.43;8.50;;;19.70;99.90;;;;;;5070613;28;20072;-25
2023/08/26 09:14:16;;;;;;;9.15;7.28;;;19.70;99.90;;;;;;5055654;28;20068;-27
2023/08/26 09:16:43;;;;;;;11.15;6.85;;;19.80;53.60;;;;;;5058572;28;20478;-27
2023/08/26 09:19:11;;;;;;;11.55;8.60;;;20.10;1.00;;;;;;5062815;28;20047;-27
2023/08/26 09:21:46;;;;;;;11.15;7.95;;;20.10;1.00;;;;;;5064036;28;20049;-27
2023/08/26 09:24:13;;;;;;;14.27;8.13;;;19.60;99.90;;;;;;5071161;28;20475;-27
2023/08/26 09:26:40;;;;;;;9.95;7.43;;;19.20;72.70;;;;;;5066844;28;20057;-27
2023/08/26 09:29:18;;;;;;;11.65;7.47;;;18.80;99.90;;;;;;5060618;28;20131;-24
2023/08/26 09:31:49;;;;;;;23.40;10.30;;;18.30;99.90;;;;;;5063640;28;20044;-22
2023/08/26 09:34:25;;;;;;;16.65;9.57;;;17.40;99.90;;;;;;5054914;28;20475;-21
2023/08/26 09:36:51;;;;;;;21.88;12.57;;;16.50;99.90;;;;;;5041272;28;20043;-21
2023/08/26 09:39:16;;;;;;;22.77;12.90;;;16.10;99.90;;;;;;5060704;28;20045;-21
2023/08/26 09:41:44;;;;;;;14.18;11.02;;;15.90;99.90;;;;;;5044625;28;20485;-22
2023/08/26 09:44:11;;;;;;;15.75;11.82;;;15.70;99.90;;;;;;5060227;28;20080;-22
2023/08/26 09:46:38;;;;;;;17.65;11.90;;;15.40;99.90;;;;;;5055758;28;20154;-22
2023/08/26 09:49:04;;;;;;;20.42;14.23;;;15.00;99.90;;;;;;5066798;28;20044;-22
2023/08/26 09:51:30;;;;;;;21.63;14.93;;;15.40;99.90;;;;;;5060927;28;20522;-23
2023/08/26 09:53:59;;;;;;;21.45;15.48;;;15.00;99.90;;;;;;5043148;28;20040;-22
2023/08/26 09:56:26;;;;;;;22.13;16.10;;;14.80;99.90;;;;;;5074324;28;20045;-23
2023/08/26 09:58:54;;;;;;;19.25;16.17;;;15.20;99.90;;;;;;5064134;28;20041;-21
2023/08/26 10:01:22;;;;;;;18.73;13.75;;;14.80;99.90;;;;;;5055960;28;20431;-21
2023/08/26 10:04:05;;;;;;;14.85;10.40;;;15.40;99.90;;;;;;5055571;28;20048;-21
2023/08/26 10:06:39;;;;;;;6.37;2.97;;;14.60;99.90;;;;;;5065521;28;20120;-21
2023/08/26 10:09:11;;;;;;;5.70;1.95;;;13.90;99.90;;;;;;5064078;28;20045;-22
2023/08/26 10:11:40;;;;;;;3.70;1.30;;;13.80;99.90;;;;;;5062162;28;20082;-22
2023/08/26 10:14:14;;;;;;;3.83;1.50;;;13.00;99.90;;;;;;5063645;28;20411;-22
2023/08/26 10:16:42;;;;;;;4.13;1.77;;;13.10;99.90;;;;;;5055502;28;20061;-21
2023/08/26 10:19:13;;;;;;;3.80;2.15;;;13.20;99.90;;;;;;5053905;28;20041;-20
2023/08/26 10:21:39;;;;;;;4.38;2.40;;;12.90;99.90;;;;;;5058851;28;20068;-20
2023/08/26 10:24:10;;;;;;;4.45;2.90;;;13.10;99.90;;;;;;5056381;28;20080;-20
2023/08/26 10:26:36;;;;;;;4.82;2.53;;;13.20;99.90;;;;;;5036482;28;20135;-21
2023/08/26 10:29:02;;;;;;;3.90;2.60;;;13.60;99.90;;;;;;5039359;28;20052;-20
2023/08/26 10:31:38;;;;;;;5.55;3.20;;;13.60;99.90;;;;;;5055580;28;20057;-21
2023/08/26 10:34:07;;;;;;;6.90;2.65;;;13.80;99.90;;;;;;5053737;28;20049;-21
2023/08/26 10:36:37;;;;;;;7.80;3.00;;;13.50;99.90;;;;;;5054506;28;20045;-22
2023/08/26 10:39:10;;;;;;;6.28;2.42;;;13.70;99.90;;;;;;5056616;28;20048;-23
2023/08/26 10:41:36;;;;;;;6.57;3.33;;;14.30;99.90;;;;;;5065797;28;20095;-22
2023/08/26 10:44:03;;;;;;;5.63;3.28;;;14.00;99.90;;;;;;5061202;28;20491;-22
2023/08/26 10:46:52;;;;;;;4.60;2.78;;;14.30;99.90;;;;;;5060527;28;20049;-22
2023/08/26 10:49:22;;;;;;;3.72;2.58;;;14.80;99.90;;;;;;5055858;28;20040;-23
2023/08/26 10:51:48;;;;;;;3.65;2.83;;;15.00;99.90;;;;;;5067235;28;20044;-23
2023/08/26 10:54:14;;;;;;;4.60;3.22;;;15.60;99.90;;;;;;5061574;28;20441;-23
2023/08/26 10:56:56;;;;;;;4.40;3.13;;;15.90;99.90;;;;;;5074384;28;20082;-23
2023/08/26 10:59:37;;;;;;;3.45;2.63;;;15.90;99.90;;;;;;5056185;28;20040;-23
2023/08/26 11:02:13;;;;;;;3.67;2.17;;;16.20;99.90;;;;;;5072819;28;20040;-24
2023/08/26 11:04:44;;;;;;;4.35;2.30;;;16.30;99.90;;;;;;5072458;28;20055;-24
2023/08/26 11:07:18;;;;;;;3.65;2.33;;;16.80;99.90;;;;;;5053023;28;20119;-24
2023/08/26 11:09:44;;;;;;;3.45;2.05;;;17.00;99.90;;;;;;5054229;28;20048;-24
2023/08/26 11:12:29;;;;;;;4.25;2.22;;;16.80;99.90;;;;;;5054087;28;20581;-25
2023/08/26 11:15:05;;;;;;;3.53;1.75;;;17.10;99.90;;;;;;5054064;28;20041;-25
2023/08/26 11:17:31;;;;;;;3.83;1.65;;;17.30;99.90;;;;;;5054006;28;20041;-25
2023/08/26 11:19:57;;;;;;;2.30;1.40;;;17.40;99.90;;;;;;5053733;28;20043;-25
2023/08/26 11:22:25;;;;;;;2.03;1.30;;;17.30;99.90;;;;;;5054487;28;20044;-25
2023/08/26 11:24:51;;;;;;;13.10;1.80;;;17.10;99.90;;;;;;5053972;28;20053;-25
2023/08/26 11:27:17;;;;;;;2.78;1.55;;;17.30;99.90;;;;;;5036039;28;20049;-25
2023/08/26 11:29:43;;;;;;;3.00;1.70;;;17.20;99.90;;;;;;5053939;28;20045;-25
2023/08/26 11:32:09;;;;;;;3.25;2.00;;;17.60;99.90;;;;;;5060319;28;20052;-24
2023/08/26 11:34:35;;;;;;;3.28;2.42;;;17.50;99.90;;;;;;5053738;28;20136;-25
2023/08/26 11:37:01;;;;;;;4.32;2.10;;;17.60;99.90;;;;;;5057579;28;20127;-25
2023/08/26 11:39:37;;;;;;;5.07;2.92;;;17.80;99.90;;;;;;5055735;28;20045;-25
2023/08/26 11:42:15;;;;;;;3.95;2.20;;;18.50;99.90;;;;;;5073403;28;20084;-24
2023/08/26 11:44:47;;;;;;;4.70;2.88;;;19.10;1.00;;;;;;5073696;28;20048;-24
2023/08/26 11:47:13;;;;;;;5.97;3.47;;;19.40;1.00;;;;;;5069531;28;20116;-25
2023/08/26 11:49:39;;;;;;;4.93;2.90;;;19.80;99.90;;;;;;5052920;28;20056;-24
2023/08/26 11:52:06;;;;;;;5.30;3.17;;;20.50;99.90;;;;;;5054109;28;20371;-25
2023/08/26 11:54:32;;;;;;;5.75;3.38;;;21.10;1.00;;;;;;5053447;28;20044;-25
2023/08/26 11:57:00;;;;;;;4.35;3.10;;;21.50;1.00;;;;;;5053524;28;20552;-24
2023/08/26 11:59:25;;;;;;;5.40;2.70;;;21.00;1.00;;;;;;5051781;28;20040;-25
2023/08/26 12:01:51;;;;;;;2.90;1.95;;;21.50;99.90;;;;;;5054444;28;20041;-25
2023/08/26 12:04:18;;;;;;;2.30;1.13;;;21.80;99.90;;;;;;5060671;28;20080;-24
2023/08/26 12:06:44;;;;;;;2.30;0.60;;;21.80;1.00;;;;;;5056749;28;20052;-25
2023/08/26 12:09:12;;;;;;;1.60;0.70;;;21.50;56.30;;;;;;5057467;28;20394;-24
2023/08/26 12:11:39;;;;;;;1.70;0.70;;;20.80;99.90;;;;;;5064474;28;20048;-24
2023/08/26 12:14:21;;;;;;;1.95;0.60;;;20.00;1.00;;;;;;5057486;28;20052;-24
2023/08/26 12:16:47;;;;;;;3.53;0.80;;;19.50;1.00;;;;;;5056450;28;20049;-24
2023/08/26 12:19:17;;;;;;;3.00;0.60;;;19.10;61.90;;;;;;5058178;28;20037;-24
2023/08/26 12:21:47;;;;;;;2.65;0.82;;;18.90;1.00;;;;;;5057360;28;20044;-24
2023/08/26 12:24:13;;;;;;;2.97;0.98;;;19.00;99.90;;;;;;5057271;28;20048;-24
2023/08/26 12:26:39;;;;;;;4.10;0.77;;;19.10;99.90;;;;;;5057141;28;20141;-24
2023/08/26 12:29:05;;;;;;;3.60;0.70;;;19.00;1.00;;;;;;5059796;28;20432;-24
2023/08/26 12:31:34;;;;;;;1.45;0.47;;;18.90;99.90;;;;;;5038852;28;20136;-25
2023/08/26 12:34:02;;;;;;;2.72;0.60;;;18.90;99.90;;;;;;5057961;28;20049;-25
2023/08/26 12:36:28;;;;;;;2.50;1.00;;;19.00;1.00;;;;;;5056164;28;20048;-25